createdAt,value
2023-01-09T00:01:43.066Z,7.63
2023-01-09T00:04:11.752Z,7.60
2023-01-09T00:06:43.341Z,7.65
2023-01-09T00:09:12.160Z,7.57
2023-01-09T00:11:40.217Z,7.35
2023-01-09T00:14:10.844Z,7.68
2023-01-09T00:16:40.451Z,7.22
2023-01-09T00:19:08.641Z,7.20
2023-01-09T00:21:37.174Z,7.38
2023-01-09T00:24:06.028Z,6.95
2023-01-09T00:26:34.642Z,7.07
2023-01-09T00:29:02.822Z,6.85
2023-01-09T00:31:31.789Z,6.60
2023-01-09T00:34:03.747Z,6.45
2023-01-09T00:36:32.137Z,7.43
2023-01-09T00:39:00.696Z,6.43
2023-01-09T00:41:32.441Z,7.15
2023-01-09T00:44:04.182Z,6.20
2023-01-09T00:46:35.044Z,7.18
2023-01-09T00:49:08.074Z,7.00
2023-01-09T00:51:36.363Z,6.90
2023-01-09T00:54:05.408Z,6.88
2023-01-09T00:56:36.090Z,6.75
2023-01-09T00:59:04.684Z,6.90
2023-01-09T01:01:32.890Z,6.57
2023-01-09T01:04:21.480Z,7.05
2023-01-09T01:07:08.210Z,6.40
2023-01-09T01:09:36.484Z,5.95
2023-01-09T01:12:07.226Z,6.40
2023-01-09T01:14:35.946Z,6.80
2023-01-09T01:17:04.644Z,6.43
2023-01-09T01:19:32.808Z,6.65
2023-01-09T01:22:05.372Z,6.72
2023-01-09T01:24:33.592Z,6.10
2023-01-09T01:27:01.853Z,6.07
2023-01-09T01:29:30.175Z,6.72
2023-01-09T01:31:59.673Z,6.05
2023-01-09T01:34:29.461Z,6.35
2023-01-09T01:36:57.567Z,5.95
2023-01-09T01:39:27.228Z,5.97
2023-01-09T01:41:55.287Z,6.38
2023-01-09T01:44:58.990Z,6.30
2023-01-09T01:47:33.690Z,5.68
2023-01-09T01:50:05.297Z,6.32
2023-01-09T01:52:36.691Z,5.80
2023-01-09T01:55:09.595Z,6.07
2023-01-09T01:57:42.029Z,5.45
2023-01-09T02:00:11.880Z,5.80
2023-01-09T02:02:40.095Z,5.47
2023-01-09T02:05:08.672Z,5.93
2023-01-09T02:07:36.782Z,5.72
2023-01-09T02:10:07.284Z,5.88
2023-01-09T02:12:35.416Z,5.55
2023-01-09T02:15:07.059Z,5.97
2023-01-09T02:17:53.005Z,5.78
2023-01-09T02:20:40.144Z,5.60
2023-01-09T02:23:45.181Z,5.88
2023-01-09T02:26:48.816Z,5.97
2023-01-09T02:29:50.244Z,5.80
2023-01-09T02:32:34.755Z,5.88
2023-01-09T02:35:12.592Z,6.13
2023-01-09T02:37:49.735Z,5.60
2023-01-09T02:40:26.252Z,5.82
2023-01-09T02:42:56.583Z,5.72
2023-01-09T02:45:24.711Z,5.32
2023-01-09T02:47:54.567Z,6.30
2023-01-09T02:50:25.648Z,5.40
2023-01-09T02:53:27.022Z,5.90
2023-01-09T02:56:06.259Z,6.10
2023-01-09T02:58:50.474Z,5.53
2023-01-09T03:01:28.987Z,5.63
2023-01-09T03:04:09.387Z,5.80
2023-01-09T03:06:46.701Z,5.30
2023-01-09T03:09:20.239Z,5.38
2023-01-09T03:11:51.486Z,5.68
2023-01-09T03:14:24.573Z,5.45
2023-01-09T03:16:57.834Z,5.63
2023-01-09T03:21:58.718Z,5.28
2023-01-09T03:24:26.895Z,5.80
2023-01-09T03:26:55.478Z,5.40
2023-01-09T03:29:23.593Z,5.70
2023-01-09T03:31:52.658Z,5.75
2023-01-09T03:34:20.782Z,5.88
2023-01-09T03:36:50.269Z,5.45
2023-01-09T03:39:18.368Z,6.03
2023-01-09T03:41:46.464Z,5.97
2023-01-09T03:44:14.586Z,5.60
2023-01-09T03:46:42.660Z,6.25
2023-01-09T03:49:10.731Z,6.30
2023-01-09T03:51:38.807Z,5.57
2023-01-09T03:54:08.269Z,5.60
2023-01-09T03:56:36.721Z,5.20
2023-01-09T03:59:04.985Z,5.68
2023-01-09T04:01:33.235Z,5.90
2023-01-09T04:04:01.410Z,5.85
2023-01-09T04:06:29.631Z,5.45
2023-01-09T04:08:57.830Z,5.72
2023-01-09T04:11:27.370Z,5.55
2023-01-09T04:13:55.514Z,5.63
2023-01-09T04:16:23.583Z,5.65
2023-01-09T04:18:51.902Z,5.70
2023-01-09T04:21:19.998Z,5.85
2023-01-09T04:23:48.174Z,5.35
2023-01-09T04:26:16.241Z,5.57
2023-01-09T04:28:48.867Z,5.85
2023-01-09T04:31:17.065Z,5.90
2023-01-09T04:33:45.146Z,5.93
2023-01-09T04:36:13.211Z,5.40
2023-01-09T04:38:41.648Z,5.63
2023-01-09T04:41:09.742Z,5.13
2023-01-09T04:43:37.920Z,4.95
2023-01-09T04:46:07.524Z,5.10
2023-01-09T04:48:35.844Z,5.13
2023-01-09T04:51:04.075Z,5.00
2023-01-09T04:53:32.233Z,5.10
2023-01-09T04:56:00.369Z,5.15
2023-01-09T04:58:28.493Z,4.40
2023-01-09T05:00:56.680Z,5.10
2023-01-09T05:03:26.200Z,4.95
2023-01-09T05:05:54.384Z,4.75
2023-01-09T05:08:22.552Z,4.88
2023-01-09T05:10:50.672Z,4.80
2023-01-09T05:13:18.717Z,4.88
2023-01-09T05:15:46.738Z,4.55
2023-01-09T05:18:14.862Z,4.80
2023-01-09T05:20:44.418Z,4.70
2023-01-09T05:23:12.604Z,4.75
2023-01-09T05:25:40.713Z,5.53
2023-01-09T05:28:08.787Z,4.53
2023-01-09T05:30:37.189Z,5.10
2023-01-09T05:33:05.400Z,4.90
2023-01-09T05:35:33.428Z,4.80
2023-01-09T05:38:02.875Z,4.90
2023-01-09T05:40:39.595Z,4.95
2023-01-09T05:43:08.212Z,4.93
2023-01-09T05:45:36.338Z,5.57
2023-01-09T05:48:04.758Z,5.00
2023-01-09T05:50:32.899Z,4.78
2023-01-09T05:53:02.364Z,5.20
2023-01-09T05:55:30.462Z,4.93
2023-01-09T05:57:58.612Z,4.72
2023-01-09T06:00:26.896Z,5.00
2023-01-09T06:02:54.982Z,5.20
2023-01-09T06:05:23.297Z,4.97
2023-01-09T06:07:51.409Z,5.00
2023-01-09T06:10:21.136Z,5.13
2023-01-09T06:12:50.544Z,5.40
2023-01-09T06:15:20.486Z,4.88
2023-01-09T06:17:49.037Z,5.10
2023-01-09T06:20:17.336Z,5.32
2023-01-09T06:22:45.896Z,5.05
2023-01-09T06:25:14.747Z,5.28
2023-01-09T06:27:44.550Z,5.05
2023-01-09T06:30:13.468Z,5.32
2023-01-09T06:32:41.561Z,5.32
2023-01-09T06:35:10.931Z,5.72
2023-01-09T06:37:39.003Z,5.47
2023-01-09T06:40:08.841Z,5.60
2023-01-09T06:42:36.962Z,5.45
2023-01-09T06:45:07.599Z,5.35
2023-01-09T06:47:35.710Z,5.63
2023-01-09T06:50:03.888Z,5.53
2023-01-09T06:52:31.981Z,5.40
2023-01-09T06:55:00.144Z,5.53
2023-01-09T06:57:28.696Z,5.95
2023-01-09T06:59:56.781Z,6.40
2023-01-09T07:02:26.403Z,6.53
2023-01-09T07:04:54.485Z,6.35
2023-01-09T07:07:22.708Z,6.53
2023-01-09T07:09:50.967Z,6.63
2023-01-09T07:12:19.206Z,6.30
2023-01-09T07:14:47.419Z,6.50
2023-01-09T07:17:15.470Z,6.32
2023-01-09T07:19:44.916Z,6.22
2023-01-09T07:22:13.234Z,6.40
2023-01-09T07:24:41.431Z,6.97
2023-01-09T07:27:09.510Z,5.55
2023-01-09T07:29:37.870Z,6.03
2023-01-09T07:32:06.157Z,6.05
2023-01-09T07:34:34.424Z,5.88
2023-01-09T07:37:03.912Z,5.97
2023-01-09T07:39:32.062Z,6.20
2023-01-09T07:42:00.385Z,6.05
2023-01-09T07:44:28.576Z,6.03
2023-01-09T07:46:56.714Z,6.43
2023-01-09T07:49:26.760Z,6.18
2023-01-09T07:51:55.087Z,6.72
2023-01-09T07:54:24.783Z,5.70
2023-01-09T07:56:53.096Z,5.80
2023-01-09T07:59:21.195Z,5.50
2023-01-09T08:01:49.535Z,6.40
2023-01-09T08:04:17.806Z,5.82
2023-01-09T08:06:45.947Z,6.20
2023-01-09T08:09:14.997Z,6.18
2023-01-09T08:11:44.518Z,6.15
2023-01-09T08:14:12.741Z,5.30
2023-01-09T08:16:40.921Z,6.50
2023-01-09T08:19:12.052Z,5.85
2023-01-09T08:21:40.526Z,6.07
2023-01-09T08:24:10.405Z,5.68
2023-01-09T08:26:38.617Z,5.68
2023-01-09T08:29:08.260Z,6.05
2023-01-09T08:31:37.025Z,5.90
2023-01-09T08:34:05.228Z,5.88
2023-01-09T08:36:33.290Z,5.78
2023-01-09T08:39:02.145Z,5.80
2023-01-09T08:41:47.815Z,5.72
2023-01-09T08:44:34.775Z,5.93
2023-01-09T08:47:09.259Z,5.90
2023-01-09T08:49:39.610Z,6.15
2023-01-09T08:52:08.493Z,5.85
2023-01-09T08:54:36.991Z,5.95
2023-01-09T08:57:05.233Z,5.75
2023-01-09T08:59:34.986Z,5.93
2023-01-09T09:02:03.147Z,5.90
2023-01-09T09:04:31.385Z,6.05
2023-01-09T09:06:59.456Z,5.63
2023-01-09T09:09:27.588Z,5.88
2023-01-09T09:11:55.912Z,5.80
2023-01-09T09:14:41.813Z,5.93
2023-01-09T09:17:11.284Z,5.53
2023-01-09T09:19:42.535Z,5.78
2023-01-09T09:22:10.698Z,5.63
2023-01-09T09:24:38.780Z,5.80
2023-01-09T09:27:06.923Z,6.10
2023-01-09T09:29:34.996Z,6.28
2023-01-09T09:32:03.203Z,5.97
2023-01-09T09:34:32.814Z,6.22
2023-01-09T09:37:00.999Z,5.50
2023-01-09T09:39:29.371Z,5.43
2023-01-09T09:42:35.545Z,5.30
2023-01-09T09:45:14.545Z,6.20
2023-01-09T09:47:53.611Z,5.22
2023-01-09T09:50:41.996Z,6.07
2023-01-09T09:53:19.917Z,5.60
2023-01-09T09:55:50.674Z,5.90
2023-01-09T09:58:26.046Z,5.72
2023-01-09T10:00:55.303Z,6.05
2023-01-09T10:03:33.970Z,6.18
2023-01-09T10:06:08.670Z,5.60
2023-01-09T10:08:43.867Z,6.18
2023-01-09T10:11:16.820Z,6.50
2023-01-09T10:14:04.185Z,6.18
2023-01-09T10:16:52.909Z,6.03
2023-01-09T10:19:35.107Z,6.15
2023-01-09T10:22:15.754Z,6.10
2023-01-09T10:25:02.304Z,5.93
2023-01-09T10:27:42.454Z,6.10
2023-01-09T10:30:27.189Z,6.80
2023-01-09T10:33:03.664Z,5.82
2023-01-09T10:36:08.697Z,6.47
2023-01-09T10:38:47.475Z,6.47
2023-01-09T10:41:22.645Z,5.50
2023-01-09T10:43:56.590Z,5.97
2023-01-09T10:46:30.448Z,6.25
2023-01-09T10:49:02.303Z,6.03
2023-01-09T10:51:38.030Z,6.28
2023-01-09T10:54:14.803Z,5.95
2023-01-09T10:56:48.573Z,5.90
2023-01-09T10:59:16.765Z,6.30
2023-01-09T11:01:45.104Z,6.35
2023-01-09T11:04:24.773Z,6.05
2023-01-09T11:06:58.047Z,5.97
2023-01-09T11:09:27.710Z,6.32
2023-01-09T11:11:55.833Z,6.28
2023-01-09T11:14:31.378Z,6.30
2023-01-09T11:17:02.173Z,5.95
2023-01-09T11:19:31.146Z,6.10
2023-01-09T11:22:09.820Z,6.28
2023-01-09T11:24:39.332Z,6.15
2023-01-09T11:27:24.497Z,6.28
2023-01-09T11:30:15.406Z,6.05
2023-01-09T11:32:44.096Z,6.28
2023-01-09T11:35:20.030Z,6.40
2023-01-09T11:37:57.410Z,6.10
2023-01-09T11:40:26.969Z,6.20
2023-01-09T11:43:17.927Z,5.88
2023-01-09T11:46:00.737Z,6.10
2023-01-09T11:48:36.712Z,6.40
2023-01-09T11:51:08.119Z,6.40
2023-01-09T11:53:49.949Z,5.80
2023-01-09T11:56:19.597Z,5.75
2023-01-09T11:58:47.789Z,5.85
2023-01-09T12:01:47.393Z,6.35
2023-01-09T12:04:25.060Z,6.40
2023-01-09T12:07:23.931Z,6.22
2023-01-09T12:10:02.258Z,6.38
2023-01-09T12:12:41.579Z,5.68
2023-01-09T12:15:27.788Z,6.35
2023-01-09T12:18:11.872Z,6.35
2023-01-09T12:20:58.253Z,6.07
2023-01-09T12:23:37.143Z,6.20
2023-01-09T12:26:17.885Z,6.43
2023-01-09T12:29:14.820Z,6.85
2023-01-09T12:31:53.969Z,6.43
2023-01-09T12:34:39.692Z,6.35
2023-01-09T12:37:30.480Z,5.93
2023-01-09T12:40:08.597Z,6.38
2023-01-09T12:42:51.201Z,5.97
2023-01-09T12:45:38.016Z,6.22
2023-01-09T12:48:20.259Z,6.70
2023-01-09T12:51:06.919Z,6.47
2023-01-09T12:53:40.139Z,5.80
2023-01-09T12:58:45.208Z,6.32
2023-01-09T13:01:21.384Z,7.53
2023-01-09T13:03:54.182Z,6.20
2023-01-09T13:06:24.547Z,6.68
2023-01-09T13:09:02.964Z,7.40
2023-01-09T13:11:38.327Z,5.97
2023-01-09T13:14:11.691Z,6.15
2023-01-09T13:16:47.654Z,6.53
2023-01-09T13:19:21.738Z,6.45
2023-01-09T13:21:50.697Z,6.47
2023-01-09T13:24:24.056Z,6.35
2023-01-09T13:26:57.817Z,6.45
2023-01-09T13:29:29.793Z,6.30
2023-01-09T13:32:21.385Z,6.38
2023-01-09T13:34:54.807Z,6.10
2023-01-09T13:37:26.953Z,6.32
2023-01-09T13:40:00.172Z,6.63
2023-01-09T13:45:20.133Z,6.63
2023-01-09T13:48:25.192Z,6.97
2023-01-09T13:50:55.859Z,6.47
2023-01-09T13:53:47.020Z,6.97
2023-01-09T13:56:16.017Z,7.13
2023-01-09T13:59:02.985Z,6.75
2023-01-09T14:01:47.676Z,8.32
2023-01-09T14:04:45.546Z,8.50
2023-01-09T14:07:22.185Z,8.80
2023-01-09T14:09:55.523Z,6.97
2023-01-09T14:12:24.537Z,7.20
2023-01-09T14:14:55.120Z,7.30
2023-01-09T14:17:32.689Z,7.05
2023-01-09T14:20:06.021Z,7.32
2023-01-09T14:22:45.602Z,6.75
2023-01-09T14:25:33.043Z,8.07
2023-01-09T14:28:11.661Z,7.28
2023-01-09T14:31:00.386Z,6.82
2023-01-09T14:33:29.961Z,7.35
2023-01-09T14:36:10.018Z,6.85
2023-01-09T14:38:42.703Z,7.63
2023-01-09T14:41:21.027Z,7.25
2023-01-09T14:44:00.729Z,7.35
2023-01-09T14:46:35.568Z,6.97
2023-01-09T14:49:14.436Z,7.18
2023-01-09T14:51:47.000Z,7.07
2023-01-09T14:54:28.393Z,7.82
2023-01-09T14:56:56.569Z,7.50
2023-01-09T14:59:24.778Z,7.10
2023-01-09T15:01:56.700Z,7.20
2023-01-09T15:04:34.913Z,7.25
2023-01-09T15:07:06.011Z,7.25
2023-01-09T15:09:42.695Z,7.03
2023-01-09T15:12:18.243Z,7.55
2023-01-09T15:14:47.873Z,7.15
2023-01-09T15:17:21.962Z,7.63
2023-01-09T15:19:50.567Z,8.07
2023-01-09T15:22:26.565Z,6.95
2023-01-09T15:24:54.776Z,7.45
2023-01-09T15:27:23.408Z,7.72
2023-01-09T15:29:52.274Z,7.43
2023-01-09T15:32:25.114Z,7.22
2023-01-09T15:34:55.204Z,7.70
2023-01-09T15:37:31.451Z,7.00
2023-01-09T15:40:01.367Z,7.90
2023-01-09T15:42:49.648Z,7.53
2023-01-09T15:45:24.571Z,7.60
2023-01-09T15:47:53.020Z,7.43
2023-01-09T15:50:27.403Z,7.50
2023-01-09T15:52:57.944Z,7.75
2023-01-09T15:55:35.205Z,7.90
2023-01-09T15:58:04.575Z,7.97
2023-01-09T16:00:36.317Z,7.60
2023-01-09T16:03:18.696Z,8.13
2023-01-09T16:05:51.287Z,7.90
2023-01-09T16:08:24.041Z,7.40
2023-01-09T16:10:54.197Z,7.93
2023-01-09T16:13:25.364Z,7.47
2023-01-09T16:15:54.081Z,7.85
2023-01-09T16:18:28.628Z,7.95
2023-01-09T16:21:05.771Z,8.10
2023-01-09T16:23:36.976Z,7.85
2023-01-09T16:26:07.634Z,7.75
2023-01-09T16:28:35.905Z,8.05
2023-01-09T16:31:08.288Z,7.57
2023-01-09T16:33:36.600Z,7.63
2023-01-09T16:36:06.289Z,8.23
2023-01-09T16:38:34.559Z,8.00
2023-01-09T16:41:23.721Z,8.05
2023-01-09T16:43:52.780Z,7.65
2023-01-09T16:46:22.339Z,7.85
2023-01-09T16:48:51.060Z,8.88
2023-01-09T16:51:21.735Z,7.97
2023-01-09T16:53:50.803Z,8.05
2023-01-09T16:56:23.158Z,8.52
2023-01-09T16:58:53.410Z,7.97
2023-01-09T17:01:22.428Z,8.57
2023-01-09T17:03:51.078Z,8.02
2023-01-09T17:06:24.351Z,8.50
2023-01-09T17:08:52.918Z,7.90
2023-01-09T17:11:25.069Z,6.75
2023-01-09T17:13:53.660Z,7.65
2023-01-09T17:16:24.893Z,6.20
2023-01-09T17:18:53.099Z,6.35
2023-01-09T17:21:24.805Z,7.05
2023-01-09T17:24:14.053Z,6.93
2023-01-09T17:27:04.156Z,6.10
2023-01-09T17:29:33.827Z,6.30
2023-01-09T17:32:02.162Z,6.07
2023-01-09T17:34:30.397Z,6.57
2023-01-09T17:36:58.582Z,6.72
2023-01-09T17:39:26.724Z,6.45
2023-01-09T17:41:57.645Z,6.25
2023-01-09T17:44:26.441Z,6.30
2023-01-09T17:46:54.556Z,6.45
2023-01-09T17:49:23.882Z,6.57
2023-01-09T17:51:52.062Z,6.57
2023-01-09T17:54:21.305Z,6.00
2023-01-09T17:56:52.312Z,6.35
2023-01-09T17:59:21.934Z,6.05
2023-01-09T18:01:50.341Z,6.50
2023-01-09T18:04:18.682Z,6.35
2023-01-09T18:06:48.309Z,5.97
2023-01-09T18:09:17.973Z,6.00
2023-01-09T18:11:47.627Z,6.53
2023-01-09T18:14:17.562Z,5.93
2023-01-09T18:16:47.296Z,7.00
2023-01-09T18:19:15.745Z,6.60
2023-01-09T18:21:43.978Z,6.18
2023-01-09T18:24:12.305Z,6.05
2023-01-09T18:26:40.482Z,6.45
2023-01-09T18:29:09.267Z,6.18
2023-01-09T18:31:37.714Z,6.28
2023-01-09T18:34:07.541Z,6.03
2023-01-09T18:36:37.598Z,6.45
2023-01-09T18:39:07.165Z,6.30
2023-01-09T18:41:35.485Z,6.13
2023-01-09T18:44:04.065Z,6.85
2023-01-09T18:46:32.617Z,6.20
2023-01-09T18:49:02.861Z,6.43
2023-01-09T18:51:36.705Z,6.47
2023-01-09T18:54:08.059Z,5.88
2023-01-09T18:56:37.407Z,6.30
2023-01-09T18:59:06.129Z,6.53
2023-01-09T19:01:34.323Z,6.40
2023-01-09T19:04:02.823Z,6.20
2023-01-09T19:06:36.753Z,7.13
2023-01-09T19:09:05.921Z,6.15
2023-01-09T19:11:34.148Z,6.60
2023-01-09T19:14:02.492Z,6.53
2023-01-09T19:16:30.857Z,6.20
2023-01-09T19:19:02.672Z,6.32
2023-01-09T19:21:30.837Z,6.05
2023-01-09T19:24:00.789Z,6.22
2023-01-09T19:26:30.963Z,6.32
2023-01-09T19:29:00.896Z,6.40
2023-01-09T19:31:29.835Z,6.20
2023-01-09T19:33:58.699Z,6.32
2023-01-09T19:36:29.259Z,5.68
2023-01-09T19:38:57.972Z,6.20
2023-01-09T19:41:27.968Z,5.80
2023-01-09T19:43:56.592Z,5.88
2023-01-09T19:46:26.635Z,5.82
2023-01-09T19:48:58.883Z,6.07
2023-01-09T19:51:27.775Z,6.28
2023-01-09T19:56:30.627Z,6.10
2023-01-09T19:59:01.233Z,5.43
2023-01-09T20:01:32.001Z,5.55
2023-01-09T20:04:03.385Z,6.53
2023-01-09T20:06:32.157Z,6.25
2023-01-09T20:09:02.298Z,5.82
2023-01-09T20:11:33.776Z,6.13
2023-01-09T20:14:02.014Z,6.55
2023-01-09T20:16:31.870Z,5.80
2023-01-09T20:19:04.853Z,5.97
2023-01-09T20:21:39.385Z,5.35
2023-01-09T20:24:18.053Z,5.65
2023-01-09T20:26:51.677Z,5.68
2023-01-09T20:29:26.269Z,5.70
2023-01-09T20:31:58.357Z,5.88
2023-01-09T20:34:33.263Z,6.22
2023-01-09T20:37:05.078Z,5.80
2023-01-09T20:39:44.371Z,5.45
2023-01-09T20:42:19.742Z,5.30
2023-01-09T20:44:50.765Z,5.20
2023-01-09T20:47:24.688Z,5.65
2023-01-09T20:50:00.225Z,5.47
2023-01-09T20:52:32.697Z,5.40
2023-01-09T20:55:07.795Z,5.55
2023-01-09T20:57:54.528Z,5.38
2023-01-09T21:02:51.801Z,5.25
2023-01-09T21:05:20.017Z,5.22
2023-01-09T21:07:48.177Z,5.50
2023-01-09T21:10:16.656Z,5.50
2023-01-09T21:12:46.155Z,5.15
2023-01-09T21:15:16.658Z,4.85
2023-01-09T21:17:45.381Z,5.15
2023-01-09T21:20:15.500Z,5.07
2023-01-09T21:22:43.630Z,5.30
2023-01-09T21:25:12.049Z,4.78
2023-01-09T21:27:42.747Z,5.10
2023-01-09T21:30:13.244Z,5.80
2023-01-09T21:32:41.388Z,5.18
2023-01-09T21:35:10.324Z,5.13
2023-01-09T21:37:38.648Z,5.05
2023-01-09T21:40:12.397Z,5.28
2023-01-09T21:42:57.647Z,4.80
2023-01-09T21:45:55.990Z,5.20
2023-01-09T21:48:24.692Z,5.30
2023-01-09T21:50:52.889Z,5.00
2023-01-09T21:53:20.931Z,4.32
2023-01-09T21:55:48.972Z,4.70
2023-01-09T21:58:17.107Z,4.93
2023-01-09T22:00:46.640Z,4.95
2023-01-09T22:03:18.503Z,4.75
2023-01-09T22:05:46.739Z,4.90
2023-01-09T22:08:14.777Z,4.68
2023-01-09T22:10:43.000Z,4.68
2023-01-09T22:13:17.847Z,5.13
2023-01-09T22:15:48.182Z,5.57
2023-01-09T22:18:16.266Z,4.90
2023-01-09T22:20:46.412Z,5.00
2023-01-09T22:23:14.604Z,4.88
2023-01-09T22:25:42.938Z,5.32
2023-01-09T22:28:11.152Z,5.10
2023-01-09T22:30:40.616Z,4.63
2023-01-09T22:33:12.553Z,4.97
2023-01-09T22:35:41.773Z,4.68
2023-01-09T22:38:11.104Z,5.03
2023-01-09T22:40:40.005Z,5.28
2023-01-09T22:43:08.357Z,4.78
2023-01-09T22:45:36.533Z,5.13
2023-01-09T22:48:04.824Z,4.53
2023-01-09T22:50:34.365Z,4.85
2023-01-09T22:53:02.513Z,5.00
2023-01-09T22:55:30.614Z,4.75
2023-01-09T22:57:59.235Z,4.65
2023-01-09T23:00:27.306Z,4.80
2023-01-09T23:02:55.335Z,4.93
2023-01-09T23:05:23.482Z,4.35
2023-01-09T23:07:52.926Z,4.70
2023-01-09T23:10:21.254Z,4.82
2023-01-09T23:12:50.296Z,4.65
2023-01-09T23:15:18.439Z,4.22
2023-01-09T23:17:46.514Z,4.03
2023-01-09T23:20:14.662Z,4.45
2023-01-09T23:22:42.797Z,4.38
2023-01-09T23:25:14.389Z,4.30
2023-01-09T23:27:42.734Z,4.55
2023-01-09T23:30:12.889Z,4.32
2023-01-09T23:32:40.977Z,4.65
2023-01-09T23:35:09.622Z,4.50
2023-01-09T23:37:37.980Z,4.30
2023-01-09T23:40:07.047Z,4.50
2023-01-09T23:43:05.823Z,4.70
2023-01-09T23:45:34.844Z,3.97
2023-01-09T23:48:03.028Z,4.40
2023-01-09T23:50:31.329Z,4.20
2023-01-09T23:52:59.807Z,4.20
2023-01-09T23:55:28.281Z,4.82
2023-01-09T23:57:58.082Z,4.20
